createdAt,value
2023-02-28T02:25:27.725Z,25.00
2023-02-28T02:27:47.729Z,25.00
2023-02-28T02:28:51.114Z,25.00
2023-02-28T02:29:49.290Z,25.00
2023-02-28T02:30:47.876Z,25.00
2023-02-28T02:33:07.129Z,25.00
2023-02-28T02:34:07.400Z,25.00
2023-02-28T02:35:07.096Z,25.00
2023-02-28T02:36:06.998Z,25.00
2023-02-28T02:37:07.015Z,25.00
2023-02-28T02:38:07.054Z,25.13
2023-02-28T02:39:06.994Z,25.00
2023-02-28T02:40:07.038Z,55.93
2023-02-28T02:41:07.038Z,68.98
2023-02-28T02:42:06.994Z,21.55
2023-02-28T02:43:06.972Z,23.68
2023-02-28T02:44:06.993Z,35.33
2023-02-28T02:45:06.996Z,65.19
2023-02-28T02:46:06.958Z,39.09
2023-02-28T02:47:06.995Z,44.31
2023-02-28T02:48:06.919Z,41.20
2023-02-28T02:49:06.949Z,24.19
2023-02-28T02:50:06.964Z,32.80
2023-02-28T02:51:06.952Z,25.00
2023-02-28T04:06:46.013Z,25.00
2023-02-28T04:07:46.863Z,25.00
2023-02-28T04:10:05.166Z,25.00
2023-02-28T04:25:04.937Z,231.94
2023-02-28T04:26:04.964Z,230.44
2023-02-28T04:29:04.940Z,162.35
2023-02-28T04:30:04.928Z,140.49
2023-02-28T04:31:04.936Z,124.73
2023-02-28T04:32:05.088Z,106.73
2023-02-28T04:33:04.906Z,88.86
2023-02-28T04:34:04.920Z,71.94
2023-02-28T04:35:04.934Z,78.70
2023-02-28T04:36:04.975Z,102.97
2023-02-28T04:37:14.047Z,103.61
2023-02-28T04:39:04.940Z,108.49
2023-02-28T04:40:04.930Z,121.79
2023-02-28T04:41:04.853Z,150.41
2023-02-28T04:42:04.880Z,227.78
2023-02-28T04:43:04.919Z,257.17
2023-02-28T04:45:04.950Z,265.44
2023-02-28T04:46:04.972Z,267.65
2023-02-28T04:47:04.869Z,249.72
2023-02-28T04:48:04.816Z,250.00
2023-02-28T04:49:04.921Z,219.72
2023-02-28T04:51:48.620Z,25.00
2023-02-28T04:52:48.118Z,25.00
2023-02-28T04:54:47.915Z,25.00
2023-02-28T04:55:47.993Z,25.00
2023-02-28T06:49:16.311Z,25.00
2023-02-28T06:50:16.412Z,25.00
2023-02-28T06:52:36.693Z,25.00
2023-02-28T06:53:35.983Z,25.00
2023-02-28T06:54:36.053Z,25.00
2023-02-28T06:55:36.401Z,25.00
2023-02-28T06:56:35.883Z,25.00
2023-02-28T06:57:35.880Z,21.82
2023-02-28T06:58:35.885Z,35.04
2023-02-28T06:59:35.884Z,41.05
2023-02-28T07:00:36.207Z,26.45
2023-02-28T07:01:35.903Z,28.87
2023-02-28T07:02:36.001Z,32.22
2023-02-28T07:03:35.919Z,35.65
2023-02-28T07:04:35.910Z,54.98
2023-02-28T07:05:35.849Z,32.07
2023-02-28T07:06:35.775Z,10.12
2023-02-28T07:07:35.802Z,26.88
2023-02-28T07:08:35.788Z,30.94
2023-02-28T07:09:35.817Z,25.00
2023-02-28T07:10:35.796Z,25.00
2023-02-28T07:11:35.758Z,31.89
2023-02-28T07:12:35.786Z,22.56
2023-02-28T07:13:35.724Z,0.00
2023-02-28T07:14:35.743Z,0.00
2023-02-28T07:15:39.304Z,0.00
2023-02-28T07:16:35.726Z,0.00
2023-02-28T07:17:35.711Z,0.00
2023-02-28T07:18:35.732Z,0.00
2023-02-28T07:19:35.724Z,0.00
2023-02-28T07:21:56.290Z,25.00
2023-02-28T07:22:55.806Z,25.00
2023-02-28T07:24:55.572Z,25.00
2023-02-28T07:27:55.535Z,0.00
2023-02-28T07:28:55.532Z,0.00
2023-02-28T07:29:55.526Z,0.00
2023-02-28T07:30:55.583Z,0.00
2023-02-28T07:31:55.652Z,0.00
2023-02-28T07:32:55.519Z,0.00
2023-02-28T07:33:55.517Z,0.00
2023-02-28T07:34:55.462Z,16.72
2023-02-28T07:35:56.117Z,78.38
2023-02-28T07:36:56.184Z,105.21
2023-02-28T07:37:55.649Z,138.86
2023-02-28T07:38:55.594Z,197.20
2023-02-28T07:39:55.635Z,252.93
2023-02-28T07:40:55.794Z,267.01
2023-02-28T07:41:55.703Z,246.23
2023-02-28T07:42:55.797Z,217.97
2023-02-28T07:43:55.816Z,172.15
2023-02-28T07:44:55.902Z,258.69
2023-02-28T07:45:55.802Z,279.04
2023-02-28T07:46:55.853Z,268.60
2023-02-28T07:47:55.828Z,234.44
2023-02-28T07:48:55.776Z,227.22
2023-02-28T07:49:55.849Z,255.48
2023-02-28T07:50:55.905Z,227.57
2023-02-28T07:51:55.916Z,217.33
2023-02-28T07:52:55.998Z,227.13
2023-02-28T07:53:55.927Z,240.13
2023-02-28T07:54:55.979Z,237.08
2023-02-28T07:55:56.818Z,186.57
2023-02-28T07:56:56.048Z,109.08
2023-02-28T07:57:56.050Z,94.54
2023-02-28T07:58:56.225Z,115.46
2023-02-28T07:59:56.139Z,79.45
2023-02-28T08:00:56.301Z,75.86
2023-02-28T08:01:56.299Z,81.06
2023-02-28T08:02:56.291Z,95.86
2023-02-28T08:03:56.367Z,94.45
2023-02-28T08:04:56.520Z,117.89
2023-02-28T08:05:57.797Z,81.79
2023-02-28T08:06:56.601Z,58.77
2023-02-28T08:07:56.580Z,27.63
2023-02-28T08:08:56.586Z,41.42
2023-02-28T08:09:56.600Z,41.27
2023-02-28T08:10:57.422Z,41.46
2023-02-28T08:11:56.740Z,20.32
2023-02-28T08:12:56.681Z,22.73
2023-02-28T08:13:56.760Z,47.29
2023-02-28T08:14:56.769Z,77.28
2023-02-28T08:15:56.943Z,112.31
2023-02-28T08:16:57.446Z,117.67
2023-02-28T08:17:57.009Z,130.69
2023-02-28T08:18:56.907Z,137.90
2023-02-28T08:19:56.868Z,46.91
2023-02-28T08:22:16.714Z,25.00
2023-02-28T08:23:16.641Z,25.00
2023-02-28T08:24:16.572Z,25.00
2023-02-28T08:51:06.419Z,25.00
2023-02-28T08:57:19.424Z,25.00
2023-02-28T10:02:39.692Z,25.00
2023-02-28T10:05:18.136Z,25.00
2023-02-28T10:13:45.842Z,25.00
2023-02-28T10:19:41.495Z,25.00
2023-02-28T10:25:29.608Z,25.00
2023-02-28T10:28:41.403Z,25.00
2023-02-28T10:38:42.340Z,25.00
2023-02-28T10:39:40.632Z,25.00
2023-02-28T10:48:39.575Z,25.00
2023-02-28T10:50:59.322Z,25.00
2023-02-28T10:51:59.634Z,25.00
2023-02-28T10:52:59.322Z,25.00
2023-02-28T10:54:02.110Z,25.00
2023-02-28T10:54:59.245Z,25.00
2023-02-28T10:55:59.169Z,25.00
2023-02-28T10:56:59.201Z,25.00
2023-02-28T10:57:59.164Z,25.00
2023-02-28T10:58:59.130Z,25.00
2023-02-28T10:59:59.145Z,54.65
2023-02-28T11:00:59.199Z,42.35
2023-02-28T11:01:59.161Z,30.30
2023-02-28T11:02:59.228Z,25.11
2023-02-28T11:03:59.129Z,66.57
2023-02-28T11:04:59.190Z,87.46
2023-02-28T11:05:59.134Z,104.00
2023-02-28T11:06:59.077Z,61.75
2023-02-28T11:07:59.017Z,0.00
2023-02-28T11:08:59.099Z,25.00
2023-02-28T11:09:59.101Z,52.17
2023-02-28T11:10:59.063Z,0.00
2023-02-28T11:11:59.098Z,0.00
2023-02-28T11:13:00.920Z,0.00
2023-02-28T11:13:58.988Z,50.03
2023-02-28T11:14:59.120Z,79.01
2023-02-28T11:15:59.061Z,71.31
2023-02-28T11:16:59.028Z,60.17
2023-02-28T11:17:59.015Z,107.76
2023-02-28T11:19:00.014Z,105.75
2023-02-28T11:20:01.607Z,143.89
2023-02-28T11:20:58.945Z,139.71
2023-02-28T11:21:58.953Z,140.14
2023-02-28T11:22:58.952Z,143.00
2023-02-28T11:23:58.913Z,122.79
2023-02-28T11:24:58.946Z,119.38
2023-02-28T11:25:58.976Z,58.19
2023-02-28T11:26:58.964Z,50.03
2023-02-28T11:27:58.901Z,76.19
2023-02-28T11:28:59.024Z,63.51
2023-02-28T11:29:58.941Z,66.81
2023-02-28T11:30:58.933Z,71.41
2023-02-28T11:31:58.907Z,58.74
2023-02-28T11:32:58.943Z,53.65
2023-02-28T11:33:58.984Z,23.49
2023-02-28T11:34:58.901Z,39.51
2023-02-28T11:35:58.973Z,40.51
2023-02-28T11:36:58.872Z,25.00
2023-02-28T11:37:58.916Z,78.83
2023-02-28T11:39:01.214Z,100.89
2023-02-28T11:39:59.066Z,89.16
2023-02-28T11:40:59.143Z,92.16
2023-02-28T11:41:59.067Z,49.01
2023-02-28T11:42:59.181Z,80.75
2023-02-28T11:43:59.566Z,41.50
2023-02-28T11:44:59.028Z,25.00
2023-02-28T11:45:59.071Z,50.85
2023-02-28T11:46:59.118Z,75.23
2023-02-28T11:47:59.203Z,69.22
2023-02-28T11:48:59.113Z,0.00
2023-02-28T11:49:59.504Z,0.00
2023-02-28T11:51:00.414Z,0.00
2023-02-28T11:51:59.293Z,0.00
2023-02-28T11:52:59.562Z,0.00
2023-02-28T11:53:59.336Z,0.00
2023-02-28T11:54:59.463Z,0.00
2023-02-28T11:55:59.360Z,0.00
2023-02-28T11:56:59.720Z,47.13
2023-02-28T11:57:59.456Z,0.00
2023-02-28T11:58:59.573Z,44.48
2023-02-28T11:59:59.543Z,146.57
2023-02-28T12:00:59.588Z,84.65
2023-02-28T12:01:59.681Z,12.02
2023-02-28T12:02:59.659Z,0.00
2023-02-28T12:03:59.700Z,0.00
2023-02-28T12:04:59.723Z,0.11
2023-02-28T12:05:59.772Z,11.72
2023-02-28T12:06:59.773Z,31.83
2023-02-28T12:07:59.783Z,74.77
2023-02-28T12:09:00.075Z,29.19
2023-02-28T12:09:59.852Z,62.77
2023-02-28T12:10:59.966Z,50.61
2023-02-28T12:11:59.876Z,75.73
2023-02-28T12:12:59.922Z,80.74
2023-02-28T12:14:00.063Z,118.10
2023-02-28T12:14:59.997Z,94.08
2023-02-28T12:16:00.064Z,104.05
2023-02-28T12:17:00.010Z,72.10
2023-02-28T12:18:00.050Z,35.67
2023-02-28T12:19:00.868Z,26.48
2023-02-28T12:20:00.657Z,47.13
2023-02-28T12:21:00.791Z,0.00
2023-02-28T12:22:00.697Z,0.00
2023-02-28T12:23:02.051Z,0.00
2023-02-28T12:24:01.490Z,1.32
2023-02-28T12:25:00.895Z,68.92
2023-02-28T12:56:18.858Z,14.23
2023-02-28T13:01:18.806Z,0.00
2023-02-28T13:14:19.485Z,18.48
2023-02-28T13:16:39.157Z,25.00
2023-02-28T13:17:38.938Z,25.00
2023-02-28T13:18:38.727Z,25.00
2023-02-28T13:19:38.676Z,25.00
2023-02-28T13:20:38.672Z,25.00
2023-02-28T13:21:38.657Z,22.18
2023-02-28T13:22:38.820Z,0.00
2023-02-28T13:27:37.907Z,25.00
2023-02-28T15:56:39.764Z,25.00
2023-02-28T15:58:59.779Z,25.00
2023-02-28T15:59:59.641Z,25.00
2023-02-28T16:00:59.684Z,25.00
2023-02-28T16:02:00.569Z,25.00
2023-02-28T16:05:35.007Z,25.00
2023-02-28T16:06:38.723Z,25.00
2023-02-28T16:07:39.009Z,25.00
2023-02-28T16:08:38.685Z,25.00
2023-02-28T16:12:35.661Z,25.00
2023-02-28T16:13:35.488Z,25.00
2023-02-28T16:14:34.984Z,25.00
2023-02-28T16:15:34.957Z,25.00
2023-02-28T16:16:34.942Z,25.00
2023-02-28T16:18:55.227Z,25.00
2023-02-28T16:19:54.878Z,25.00
2023-02-28T16:20:55.257Z,25.00
2023-02-28T16:21:54.972Z,25.00
2023-02-28T16:22:54.710Z,25.00
2023-02-28T16:23:54.756Z,41.08
2023-02-28T16:24:54.751Z,16.92
2023-02-28T16:25:54.656Z,0.00
2023-02-28T16:26:54.692Z,19.97
2023-02-28T16:27:54.953Z,17.82
2023-02-28T16:28:54.654Z,26.06
2023-02-28T16:29:54.776Z,29.49
2023-02-28T16:30:54.730Z,36.03
2023-02-28T16:31:54.687Z,53.37
2023-02-28T16:32:54.666Z,40.60
2023-02-28T16:33:54.677Z,14.71
2023-02-28T16:34:54.760Z,24.42
2023-02-28T16:35:54.757Z,0.00
2023-02-28T16:36:54.738Z,0.00
2023-02-28T16:37:54.716Z,7.39
2023-02-28T16:38:54.730Z,63.93
2023-02-28T16:39:54.801Z,43.49
2023-02-28T16:40:54.805Z,51.38
2023-02-28T16:41:54.778Z,19.13
2023-02-28T16:42:54.788Z,32.10
2023-02-28T16:43:54.794Z,78.36
2023-02-28T16:44:54.818Z,91.11
2023-02-28T16:45:54.912Z,54.28
2023-02-28T16:46:54.907Z,41.48
2023-02-28T16:47:54.928Z,97.03
2023-02-28T16:48:54.970Z,90.73
2023-02-28T16:49:54.963Z,77.68
2023-02-28T16:50:55.020Z,59.17
2023-02-28T16:51:55.033Z,53.37
2023-02-28T16:52:55.115Z,49.18
2023-02-28T16:53:55.228Z,80.38
2023-02-28T16:54:55.263Z,135.28
2023-02-28T16:55:55.261Z,164.60
2023-02-28T16:56:55.289Z,198.42
2023-02-28T16:57:55.380Z,222.26
2023-02-28T16:58:55.452Z,250.00
2023-02-28T16:59:55.465Z,250.00
2023-02-28T17:01:55.674Z,220.69
2023-02-28T17:02:55.897Z,242.32
2023-02-28T17:03:55.535Z,206.02
2023-02-28T17:04:55.557Z,176.20
2023-02-28T17:05:55.723Z,159.43
2023-02-28T17:06:55.424Z,170.53
2023-02-28T17:07:55.428Z,142.82
2023-02-28T17:08:55.443Z,125.20
2023-02-28T17:09:55.441Z,126.51
2023-02-28T17:12:17.368Z,25.00
2023-02-28T17:14:17.510Z,25.00
2023-02-28T17:30:05.190Z,25.00
2023-02-28T17:33:16.835Z,25.00
2023-02-28T17:34:02.651Z,25.00
2023-02-28T17:35:03.167Z,25.00
2023-02-28T17:36:02.531Z,25.00
2023-02-28T17:37:03.864Z,25.00
2023-02-28T17:38:02.564Z,25.00
2023-02-28T17:39:02.670Z,41.39
2023-02-28T17:40:02.658Z,57.59
2023-02-28T17:41:02.675Z,88.75
2023-02-28T17:42:02.680Z,117.97
2023-02-28T17:43:02.717Z,92.10
2023-02-28T17:44:02.738Z,76.81
2023-02-28T17:45:02.738Z,2.94
2023-02-28T17:46:02.836Z,0.00
2023-02-28T17:47:02.856Z,15.72
2023-02-28T17:48:02.888Z,68.02
2023-02-28T17:49:03.607Z,101.81
2023-02-28T17:50:03.055Z,78.02
2023-02-28T17:51:03.003Z,58.54
2023-02-28T17:52:03.114Z,50.13
2023-02-28T17:53:03.064Z,50.25
2023-02-28T17:54:03.127Z,62.48
2023-02-28T17:55:03.193Z,26.23
2023-02-28T17:56:03.198Z,50.34
2023-02-28T17:57:03.157Z,28.45
2023-02-28T17:58:03.257Z,94.31
2023-02-28T17:59:03.248Z,81.09
2023-02-28T18:00:04.273Z,84.51
2023-02-28T18:06:23.086Z,25.00
2023-02-28T18:07:24.625Z,25.00
2023-02-28T18:08:23.413Z,25.00
2023-02-28T18:09:23.201Z,41.74
2023-02-28T18:10:23.096Z,56.21
2023-02-28T18:12:23.172Z,32.04
2023-02-28T18:13:23.687Z,55.00
2023-02-28T18:16:59.599Z,25.00
2023-02-28T18:20:05.564Z,25.00
2023-02-28T18:21:19.981Z,25.00
2023-02-28T18:22:03.673Z,25.00
2023-02-28T18:23:03.883Z,25.00
2023-02-28T18:25:35.140Z,25.00
2023-02-28T18:26:35.337Z,25.00
2023-02-28T18:27:35.107Z,25.00
2023-02-28T18:28:35.098Z,25.00
2023-02-28T18:29:35.054Z,25.00
2023-02-28T18:30:35.068Z,25.00
2023-02-28T18:31:35.115Z,23.08
2023-02-28T18:32:35.125Z,27.00
2023-02-28T18:33:35.018Z,32.67
2023-02-28T18:40:36.297Z,25.00
2023-02-28T18:41:36.213Z,25.00
2023-02-28T18:45:17.830Z,25.00
2023-02-28T18:47:36.819Z,25.00
2023-02-28T18:49:56.423Z,25.00
2023-02-28T18:50:56.112Z,25.00
2023-02-28T18:51:56.044Z,25.00
2023-02-28T18:52:56.147Z,25.00
2023-02-28T18:53:56.169Z,25.00
2023-02-28T18:54:56.044Z,52.64
2023-02-28T18:55:56.011Z,62.70
2023-02-28T18:56:56.002Z,48.74
2023-02-28T18:57:56.020Z,43.04
2023-02-28T18:58:56.008Z,22.94
2023-02-28T18:59:55.960Z,0.00
2023-02-28T19:00:56.072Z,21.52
2023-02-28T19:01:55.973Z,37.66
2023-02-28T19:02:55.990Z,88.43
2023-02-28T19:03:55.970Z,114.43
2023-02-28T19:04:55.954Z,100.17
2023-02-28T19:08:58.050Z,25.00
2023-02-28T19:09:58.405Z,25.00
2023-02-28T19:13:12.826Z,25.00
2023-02-28T19:14:12.232Z,25.00
2023-02-28T19:21:13.089Z,25.00
2023-02-28T19:22:12.991Z,25.00
2023-02-28T19:23:13.041Z,25.00
2023-02-28T19:24:12.707Z,25.00
2023-02-28T19:25:12.730Z,25.00
2023-02-28T19:54:08.974Z,25.00
2023-02-28T20:03:56.015Z,25.00
2023-02-28T20:14:54.546Z,25.00
2023-02-28T20:15:54.234Z,25.00
2023-02-28T20:16:55.940Z,25.00
2023-02-28T20:17:54.148Z,25.00
2023-02-28T20:18:54.135Z,25.00
2023-02-28T20:19:54.148Z,25.00
2023-02-28T20:20:54.126Z,25.00
2023-02-28T20:21:54.064Z,25.00
2023-02-28T20:22:54.109Z,58.90
2023-02-28T20:23:54.096Z,35.07
2023-02-28T20:24:54.059Z,31.66
2023-02-28T20:25:54.098Z,26.52
2023-02-28T20:26:54.019Z,25.94
2023-02-28T20:27:54.048Z,16.96
2023-02-28T20:28:54.071Z,40.28
2023-02-28T20:29:54.024Z,67.49
2023-02-28T20:30:54.103Z,0.00
2023-02-28T20:31:54.090Z,0.00
2023-02-28T20:32:54.039Z,0.00
2023-02-28T20:33:53.976Z,0.00
2023-02-28T20:37:34.453Z,25.00
2023-02-28T20:38:34.216Z,25.00
2023-02-28T20:39:34.380Z,25.00
2023-02-28T20:40:34.157Z,25.00
2023-02-28T20:41:34.143Z,25.00
2023-02-28T20:42:34.169Z,24.57
2023-02-28T20:43:34.115Z,26.43
2023-02-28T20:44:34.110Z,47.84
2023-02-28T20:45:34.178Z,48.12
2023-02-28T20:46:34.287Z,35.58
2023-02-28T20:47:34.075Z,36.02
2023-02-28T20:48:34.092Z,37.86
2023-02-28T20:49:34.115Z,42.20
2023-02-28T20:50:34.096Z,28.44
2023-02-28T20:51:34.061Z,49.23
2023-02-28T20:52:34.063Z,159.70
2023-02-28T20:53:34.054Z,277.53
2023-02-28T20:54:34.009Z,283.93
2023-02-28T20:55:34.047Z,269.24
2023-02-28T20:56:34.174Z,254.31
2023-02-28T20:57:34.055Z,248.01
2023-02-28T20:58:34.059Z,231.35
2023-02-28T20:59:34.061Z,206.39
2023-02-28T21:00:34.017Z,163.49
2023-02-28T21:01:34.054Z,152.16
2023-02-28T21:02:34.030Z,156.12
2023-02-28T21:03:34.021Z,187.44
2023-02-28T21:04:33.992Z,224.14
2023-02-28T21:06:34.007Z,252.57
2023-02-28T21:30:04.640Z,200.85
2023-02-28T21:31:08.113Z,25.00
2023-02-28T21:32:07.488Z,25.00
2023-02-28T21:33:07.500Z,25.00
2023-02-28T22:02:47.335Z,25.00
2023-02-28T22:04:47.270Z,52.75
2023-02-28T22:05:47.316Z,52.99
2023-02-28T22:06:47.266Z,115.92
2023-02-28T22:07:47.248Z,211.71
2023-02-28T22:08:47.283Z,171.16
2023-02-28T22:09:47.228Z,148.54
2023-02-28T22:10:47.247Z,228.47
2023-02-28T22:11:47.253Z,278.61
2023-02-28T22:12:47.211Z,327.43
2023-02-28T22:13:47.199Z,294.06
2023-02-28T22:14:47.209Z,234.23
2023-02-28T22:15:47.208Z,230.84
2023-02-28T22:16:51.965Z,240.52
2023-02-28T22:18:47.204Z,151.68
2023-02-28T22:19:47.169Z,61.10
2023-02-28T22:20:47.189Z,12.01
2023-02-28T22:21:47.156Z,0.00
2023-02-28T22:22:47.127Z,0.00
2023-02-28T22:23:47.130Z,0.00
2023-02-28T22:24:47.145Z,14.98
2023-02-28T22:25:47.115Z,30.19
2023-02-28T22:26:47.113Z,25.99
2023-02-28T22:27:47.083Z,30.90
2023-02-28T22:28:47.187Z,36.33
2023-02-28T22:29:48.018Z,43.97
2023-02-28T22:30:47.228Z,44.27
2023-02-28T22:31:47.437Z,39.25
2023-02-28T22:57:04.474Z,27.33
2023-02-28T23:06:08.554Z,25.00
2023-02-28T23:11:04.428Z,25.00
2023-02-28T23:14:08.266Z,25.00
2023-02-28T23:27:47.386Z,25.00
2023-02-28T23:32:55.418Z,25.00
2023-02-28T23:34:10.450Z,25.00
2023-02-28T23:34:54.835Z,25.00
2023-02-28T23:35:54.334Z,25.00
2023-02-28T23:47:18.477Z,25.00
2023-02-28T23:48:18.234Z,25.00
